sensor_id;sensor_type;location;lat;lon;timestamp;P1;P2;P0
77515;PMS5003;66627;29.424;-98.496;2023-02-27T00:01:31;18;17;
77515;PMS5003;66627;29.424;-98.496;2023-02-27T00:03:56;18;16;
77515;PMS5003;66627;29.424;-98.496;2023-02-27T00:06:21;17;17;
77515;PMS5003;66627;29.424;-98.496;2023-02-27T00:08:46;17;17;
77515;PMS5003;66627;29.424;-98.496;2023-02-27T00:11:12;16;16;
77515;PMS5003;66627;29.424;-98.496;2023-02-27T00:13:37;24;21;
77515;PMS5003;66627;29.424;-98.496;2023-02-27T00:16:03;17;17;
77515;PMS5003;66627;29.424;-98.496;2023-02-27T00:18:28;24;22;
77515;PMS5003;66627;29.424;-98.496;2023-02-27T00:20:54;18;16;
77515;PMS5003;66627;29.424;-98.496;2023-02-27T00:23:20;20;18;
77515;PMS5003;66627;29.424;-98.496;2023-02-27T00:25:45;19;18;
77515;PMS5003;66627;29.424;-98.496;2023-02-27T00:28:11;18;17;
77515;PMS5003;66627;29.424;-98.496;2023-02-27T00:30:36;21;20;
77515;PMS5003;66627;29.424;-98.496;2023-02-27T00:33:02;19;17;
77515;PMS5003;66627;29.424;-98.496;2023-02-27T00:35:27;21;17;
77515;PMS5003;66627;29.424;-98.496;2023-02-27T00:37:53;17;16;
77515;PMS5003;66627;29.424;-98.496;2023-02-27T00:40:18;20;19;
77515;PMS5003;66627;29.424;-98.496;2023-02-27T00:42:44;22;21;
77515;PMS5003;66627;29.424;-98.496;2023-02-27T00:45:09;17;17;
77515;PMS5003;66627;29.424;-98.496;2023-02-27T00:47:35;17;16;
77515;PMS5003;66627;29.424;-98.496;2023-02-27T00:50:00;18;17;
77515;PMS5003;66627;29.424;-98.496;2023-02-27T00:52:26;21;17;
77515;PMS5003;66627;29.424;-98.496;2023-02-27T00:54:51;21;20;
77515;PMS5003;66627;29.424;-98.496;2023-02-27T00:57:17;18;18;
77515;PMS5003;66627;29.424;-98.496;2023-02-27T00:59:42;15;15;
77515;PMS5003;66627;29.424;-98.496;2023-02-27T01:02:08;24;18;
77515;PMS5003;66627;29.424;-98.496;2023-02-27T01:04:34;19;19;
77515;PMS5003;66627;29.424;-98.496;2023-02-27T01:06:59;15;15;
77515;PMS5003;66627;29.424;-98.496;2023-02-27T01:09:25;14;13;
77515;PMS5003;66627;29.424;-98.496;2023-02-27T01:11:50;18;18;
77515;PMS5003;66627;29.424;-98.496;2023-02-27T01:14:15;21;19;
77515;PMS5003;66627;29.424;-98.496;2023-02-27T01:16:41;16;15;
77515;PMS5003;66627;29.424;-98.496;2023-02-27T01:19:06;19;18;
77515;PMS5003;66627;29.424;-98.496;2023-02-27T01:21:32;18;18;
77515;PMS5003;66627;29.424;-98.496;2023-02-27T01:23:57;18;18;
77515;PMS5003;66627;29.424;-98.496;2023-02-27T01:26:22;20;19;
77515;PMS5003;66627;29.424;-98.496;2023-02-27T01:28:47;19;19;
77515;PMS5003;66627;29.424;-98.496;2023-02-27T01:31:13;19;18;
77515;PMS5003;66627;29.424;-98.496;2023-02-27T01:33:38;15;15;
77515;PMS5003;66627;29.424;-98.496;2023-02-27T01:36:03;16;15;
77515;PMS5003;66627;29.424;-98.496;2023-02-27T01:38:29;20;17;
77515;PMS5003;66627;29.424;-98.496;2023-02-27T01:40:55;20;17;
77515;PMS5003;66627;29.424;-98.496;2023-02-27T01:43:20;13;13;
77515;PMS5003;66627;29.424;-98.496;2023-02-27T01:45:46;19;16;
77515;PMS5003;66627;29.424;-98.496;2023-02-27T01:48:12;18;18;
77515;PMS5003;66627;29.424;-98.496;2023-02-27T01:50:37;17;15;
77515;PMS5003;66627;29.424;-98.496;2023-02-27T01:53:02;19;18;
77515;PMS5003;66627;29.424;-98.496;2023-02-27T01:55:28;16;16;
77515;PMS5003;66627;29.424;-98.496;2023-02-27T01:57:53;20;16;
77515;PMS5003;66627;29.424;-98.496;2023-02-27T02:00:19;14;14;
77515;PMS5003;66627;29.424;-98.496;2023-02-27T02:02:46;16;16;
77515;PMS5003;66627;29.424;-98.496;2023-02-27T02:05:10;17;14;
77515;PMS5003;66627;29.424;-98.496;2023-02-27T02:07:35;16;16;
77515;PMS5003;66627;29.424;-98.496;2023-02-27T02:10:00;21;19;
77515;PMS5003;66627;29.424;-98.496;2023-02-27T02:12:27;18;18;
77515;PMS5003;66627;29.424;-98.496;2023-02-27T02:14:51;18;17;
77515;PMS5003;66627;29.424;-98.496;2023-02-27T02:17:17;20;18;
77515;PMS5003;66627;29.424;-98.496;2023-02-27T02:27:02;17;17;
77515;PMS5003;66627;29.424;-98.496;2023-02-27T02:41:34;14;13;
77515;PMS5003;66627;29.424;-98.496;2023-02-27T02:43:59;18;18;
77515;PMS5003;66627;29.424;-98.496;2023-02-27T02:46:24;21;21;
77515;PMS5003;66627;29.424;-98.496;2023-02-27T02:48:49;21;17;
77515;PMS5003;66627;29.424;-98.496;2023-02-27T02:51:14;19;18;
77515;PMS5003;66627;29.424;-98.496;2023-02-27T02:53:40;17;17;
77515;PMS5003;66627;29.424;-98.496;2023-02-27T02:56:04;17;17;
77515;PMS5003;66627;29.424;-98.496;2023-02-27T02:58:31;20;17;
77515;PMS5003;66627;29.424;-98.496;2023-02-27T03:00:55;18;16;
77515;PMS5003;66627;29.424;-98.496;2023-02-27T03:03:21;17;16;
77515;PMS5003;66627;29.424;-98.496;2023-02-27T03:05:46;18;16;
77515;PMS5003;66627;29.424;-98.496;2023-02-27T03:08:12;15;14;
77515;PMS5003;66627;29.424;-98.496;2023-02-27T03:10:37;16;16;
77515;PMS5003;66627;29.424;-98.496;2023-02-27T03:13:07;16;16;
77515;PMS5003;66627;29.424;-98.496;2023-02-27T03:15:27;17;17;
77515;PMS5003;66627;29.424;-98.496;2023-02-27T03:17:54;17;17;
77515;PMS5003;66627;29.424;-98.496;2023-02-27T03:20:19;19;18;
77515;PMS5003;66627;29.424;-98.496;2023-02-27T03:22:45;15;15;
77515;PMS5003;66627;29.424;-98.496;2023-02-27T03:25:09;15;15;
77515;PMS5003;66627;29.424;-98.496;2023-02-27T03:27:35;17;17;
77515;PMS5003;66627;29.424;-98.496;2023-02-27T03:30:02;19;19;
77515;PMS5003;66627;29.424;-98.496;2023-02-27T03:32:28;18;18;
77515;PMS5003;66627;29.424;-98.496;2023-02-27T03:34:50;18;18;
77515;PMS5003;66627;29.424;-98.496;2023-02-27T03:37:19;21;17;
77515;PMS5003;66627;29.424;-98.496;2023-02-27T03:39:43;20;17;
77515;PMS5003;66627;29.424;-98.496;2023-02-27T03:42:10;21;19;
77515;PMS5003;66627;29.424;-98.496;2023-02-27T03:44:33;16;15;
77515;PMS5003;66627;29.424;-98.496;2023-02-27T03:46:58;18;18;
77515;PMS5003;66627;29.424;-98.496;2023-02-27T03:49:23;18;17;
77515;PMS5003;66627;29.424;-98.496;2023-02-27T03:51:48;18;16;
77515;PMS5003;66627;29.424;-98.496;2023-02-27T03:54:14;14;14;
77515;PMS5003;66627;29.424;-98.496;2023-02-27T03:56:40;17;17;
77515;PMS5003;66627;29.424;-98.496;2023-02-27T03:59:05;19;19;
77515;PMS5003;66627;29.424;-98.496;2023-02-27T04:01:30;19;19;
77515;PMS5003;66627;29.424;-98.496;2023-02-27T04:03:57;20;17;
77515;PMS5003;66627;29.424;-98.496;2023-02-27T04:06:21;19;17;
77515;PMS5003;66627;29.424;-98.496;2023-02-27T04:08:48;22;22;
77515;PMS5003;66627;29.424;-98.496;2023-02-27T04:11:18;22;22;
77515;PMS5003;66627;29.424;-98.496;2023-02-27T04:13:39;21;20;
77515;PMS5003;66627;29.424;-98.496;2023-02-27T04:16:12;16;14;
77515;PMS5003;66627;29.424;-98.496;2023-02-27T04:18:31;18;17;
77515;PMS5003;66627;29.424;-98.496;2023-02-27T04:20:55;18;16;
77515;PMS5003;66627;29.424;-98.496;2023-02-27T04:23:21;18;16;
77515;PMS5003;66627;29.424;-98.496;2023-02-27T04:25:48;19;17;
77515;PMS5003;66627;29.424;-98.496;2023-02-27T04:28:13;20;18;
77515;PMS5003;66627;29.424;-98.496;2023-02-27T04:30:37;18;16;
77515;PMS5003;66627;29.424;-98.496;2023-02-27T04:33:02;17;17;
77515;PMS5003;66627;29.424;-98.496;2023-02-27T04:35:28;18;16;
77515;PMS5003;66627;29.424;-98.496;2023-02-27T04:37:53;23;23;
77515;PMS5003;66627;29.424;-98.496;2023-02-27T04:40:18;21;19;
77515;PMS5003;66627;29.424;-98.496;2023-02-27T04:42:45;22;21;
77515;PMS5003;66627;29.424;-98.496;2023-02-27T04:45:10;23;22;
77515;PMS5003;66627;29.424;-98.496;2023-02-27T04:47:33;20;17;
77515;PMS5003;66627;29.424;-98.496;2023-02-27T04:50:00;16;16;
77515;PMS5003;66627;29.424;-98.496;2023-02-27T04:52:26;19;17;
77515;PMS5003;66627;29.424;-98.496;2023-02-27T04:54:51;16;15;
77515;PMS5003;66627;29.424;-98.496;2023-02-27T04:57:17;20;17;
77515;PMS5003;66627;29.424;-98.496;2023-02-27T04:59:41;21;20;
77515;PMS5003;66627;29.424;-98.496;2023-02-27T05:02:07;24;22;
77515;PMS5003;66627;29.424;-98.496;2023-02-27T05:04:33;17;16;
77515;PMS5003;66627;29.424;-98.496;2023-02-27T05:06:57;20;18;
77515;PMS5003;66627;29.424;-98.496;2023-02-27T05:09:23;24;20;
77515;PMS5003;66627;29.424;-98.496;2023-02-27T05:11:49;15;15;
77515;PMS5003;66627;29.424;-98.496;2023-02-27T05:14:15;19;17;
77515;PMS5003;66627;29.424;-98.496;2023-02-27T05:16:40;24;21;
77515;PMS5003;66627;29.424;-98.496;2023-02-27T05:19:04;18;18;
77515;PMS5003;66627;29.424;-98.496;2023-02-27T05:21:30;20;17;
77515;PMS5003;66627;29.424;-98.496;2023-02-27T05:23:59;22;21;
77515;PMS5003;66627;29.424;-98.496;2023-02-27T05:26:23;23;20;
77515;PMS5003;66627;29.424;-98.496;2023-02-27T05:28:49;15;15;
77515;PMS5003;66627;29.424;-98.496;2023-02-27T05:31:14;17;16;
77515;PMS5003;66627;29.424;-98.496;2023-02-27T05:33:39;21;18;
77515;PMS5003;66627;29.424;-98.496;2023-02-27T05:36:04;16;15;
77515;PMS5003;66627;29.424;-98.496;2023-02-27T05:38:30;20;19;
77515;PMS5003;66627;29.424;-98.496;2023-02-27T05:40:55;20;19;
77515;PMS5003;66627;29.424;-98.496;2023-02-27T05:43:20;19;17;
77515;PMS5003;66627;29.424;-98.496;2023-02-27T05:45:45;23;21;
77515;PMS5003;66627;29.424;-98.496;2023-02-27T05:48:12;16;16;
77515;PMS5003;66627;29.424;-98.496;2023-02-27T05:50:36;16;16;
77515;PMS5003;66627;29.424;-98.496;2023-02-27T05:53:02;16;16;
77515;PMS5003;66627;29.424;-98.496;2023-02-27T05:55:26;18;16;
77515;PMS5003;66627;29.424;-98.496;2023-02-27T05:57:52;21;18;
77515;PMS5003;66627;29.424;-98.496;2023-02-27T06:00:18;18;18;
77515;PMS5003;66627;29.424;-98.496;2023-02-27T06:02:42;18;16;
77515;PMS5003;66627;29.424;-98.496;2023-02-27T06:05:07;20;19;
77515;PMS5003;66627;29.424;-98.496;2023-02-27T06:07:33;20;18;
77515;PMS5003;66627;29.424;-98.496;2023-02-27T06:09:58;23;20;
77515;PMS5003;66627;29.424;-98.496;2023-02-27T06:12:23;18;17;
77515;PMS5003;66627;29.424;-98.496;2023-02-27T06:14:49;20;16;
77515;PMS5003;66627;29.424;-98.496;2023-02-27T06:17:15;19;19;
77515;PMS5003;66627;29.424;-98.496;2023-02-27T06:19:40;22;21;
77515;PMS5003;66627;29.424;-98.496;2023-02-27T06:22:06;19;19;
77515;PMS5003;66627;29.424;-98.496;2023-02-27T06:24:31;21;19;
77515;PMS5003;66627;29.424;-98.496;2023-02-27T06:26:57;23;21;
77515;PMS5003;66627;29.424;-98.496;2023-02-27T06:29:23;20;19;
77515;PMS5003;66627;29.424;-98.496;2023-02-27T06:31:47;17;17;
77515;PMS5003;66627;29.424;-98.496;2023-02-27T06:34:12;18;16;
77515;PMS5003;66627;29.424;-98.496;2023-02-27T06:36:38;22;19;
77515;PMS5003;66627;29.424;-98.496;2023-02-27T06:39:04;17;17;
77515;PMS5003;66627;29.424;-98.496;2023-02-27T06:41:30;19;17;
77515;PMS5003;66627;29.424;-98.496;2023-02-27T06:43:55;18;17;
77515;PMS5003;66627;29.424;-98.496;2023-02-27T06:46:21;16;16;
77515;PMS5003;66627;29.424;-98.496;2023-02-27T06:48:46;19;19;
77515;PMS5003;66627;29.424;-98.496;2023-02-27T06:51:12;20;20;
77515;PMS5003;66627;29.424;-98.496;2023-02-27T06:53:36;22;22;
77515;PMS5003;66627;29.424;-98.496;2023-02-27T06:56:02;19;18;
77515;PMS5003;66627;29.424;-98.496;2023-02-27T06:58:27;22;20;
77515;PMS5003;66627;29.424;-98.496;2023-02-27T07:00:53;14;14;
77515;PMS5003;66627;29.424;-98.496;2023-02-27T07:03:18;21;20;
77515;PMS5003;66627;29.424;-98.496;2023-02-27T07:08:10;17;15;
77515;PMS5003;66627;29.424;-98.496;2023-02-27T07:10:35;15;15;
77515;PMS5003;66627;29.424;-98.496;2023-02-27T07:13:01;19;19;
77515;PMS5003;66627;29.424;-98.496;2023-02-27T07:15:27;19;17;
77515;PMS5003;66627;29.424;-98.496;2023-02-27T07:17:52;20;20;
77515;PMS5003;66627;29.424;-98.496;2023-02-27T07:20:18;19;18;
77515;PMS5003;66627;29.424;-98.496;2023-02-27T07:22:43;30;27;
77515;PMS5003;66627;29.424;-98.496;2023-02-27T07:25:09;24;21;
77515;PMS5003;66627;29.424;-98.496;2023-02-27T07:27:34;22;21;
77515;PMS5003;66627;29.424;-98.496;2023-02-27T07:30:00;24;22;
77515;PMS5003;66627;29.424;-98.496;2023-02-27T07:32:26;23;22;
77515;PMS5003;66627;29.424;-98.496;2023-02-27T07:34:51;22;20;
77515;PMS5003;66627;29.424;-98.496;2023-02-27T07:37:16;18;18;
77515;PMS5003;66627;29.424;-98.496;2023-02-27T07:39:42;26;23;
77515;PMS5003;66627;29.424;-98.496;2023-02-27T07:42:07;18;18;
77515;PMS5003;66627;29.424;-98.496;2023-02-27T07:44:33;24;21;
77515;PMS5003;66627;29.424;-98.496;2023-02-27T07:46:58;29;25;
77515;PMS5003;66627;29.424;-98.496;2023-02-27T07:49:23;24;23;
77515;PMS5003;66627;29.424;-98.496;2023-02-27T07:51:49;25;25;
77515;PMS5003;66627;29.424;-98.496;2023-02-27T07:54:15;23;21;
77515;PMS5003;66627;29.424;-98.496;2023-02-27T07:56:40;22;18;
77515;PMS5003;66627;29.424;-98.496;2023-02-27T07:59:05;28;22;
77515;PMS5003;66627;29.424;-98.496;2023-02-27T08:01:31;21;20;
77515;PMS5003;66627;29.424;-98.496;2023-02-27T08:03:56;18;16;
77515;PMS5003;66627;29.424;-98.496;2023-02-27T08:06:22;20;19;
77515;PMS5003;66627;29.424;-98.496;2023-02-27T08:08:48;24;23;
77515;PMS5003;66627;29.424;-98.496;2023-02-27T08:11:13;23;22;
77515;PMS5003;66627;29.424;-98.496;2023-02-27T08:13:38;21;21;
77515;PMS5003;66627;29.424;-98.496;2023-02-27T08:16:04;26;22;
77515;PMS5003;66627;29.424;-98.496;2023-02-27T08:18:29;24;22;
77515;PMS5003;66627;29.424;-98.496;2023-02-27T08:20:54;18;18;
77515;PMS5003;66627;29.424;-98.496;2023-02-27T08:23:20;23;23;
77515;PMS5003;66627;29.424;-98.496;2023-02-27T08:25:45;21;21;
77515;PMS5003;66627;29.424;-98.496;2023-02-27T08:28:11;23;19;
77515;PMS5003;66627;29.424;-98.496;2023-02-27T08:30:36;19;19;
77515;PMS5003;66627;29.424;-98.496;2023-02-27T08:33:02;25;21;
77515;PMS5003;66627;29.424;-98.496;2023-02-27T08:35:27;25;22;
77515;PMS5003;66627;29.424;-98.496;2023-02-27T08:37:53;27;23;
77515;PMS5003;66627;29.424;-98.496;2023-02-27T08:40:19;25;22;
77515;PMS5003;66627;29.424;-98.496;2023-02-27T08:42:44;20;20;
77515;PMS5003;66627;29.424;-98.496;2023-02-27T08:45:10;26;25;
77515;PMS5003;66627;29.424;-98.496;2023-02-27T08:47:35;24;22;
77515;PMS5003;66627;29.424;-98.496;2023-02-27T08:50:01;25;21;
77515;PMS5003;66627;29.424;-98.496;2023-02-27T08:52:26;30;25;
77515;PMS5003;66627;29.424;-98.496;2023-02-27T08:54:51;26;22;
77515;PMS5003;66627;29.424;-98.496;2023-02-27T08:57:17;24;23;
77515;PMS5003;66627;29.424;-98.496;2023-02-27T08:59:43;24;24;
77515;PMS5003;66627;29.424;-98.496;2023-02-27T09:02:08;23;21;
77515;PMS5003;66627;29.424;-98.496;2023-02-27T09:04:34;26;24;
77515;PMS5003;66627;29.424;-98.496;2023-02-27T09:06:59;23;23;
77515;PMS5003;66627;29.424;-98.496;2023-02-27T09:09:25;26;22;
77515;PMS5003;66627;29.424;-98.496;2023-02-27T09:11:50;25;24;
77515;PMS5003;66627;29.424;-98.496;2023-02-27T09:14:16;23;21;
77515;PMS5003;66627;29.424;-98.496;2023-02-27T09:16:41;24;24;
77515;PMS5003;66627;29.424;-98.496;2023-02-27T09:19:07;23;22;
77515;PMS5003;66627;29.424;-98.496;2023-02-27T09:21:32;24;24;
77515;PMS5003;66627;29.424;-98.496;2023-02-27T09:23:58;26;24;
77515;PMS5003;66627;29.424;-98.496;2023-02-27T09:26:23;31;27;
77515;PMS5003;66627;29.424;-98.496;2023-02-27T09:28:49;25;22;
77515;PMS5003;66627;29.424;-98.496;2023-02-27T09:31:14;19;19;
77515;PMS5003;66627;29.424;-98.496;2023-02-27T09:33:39;23;21;
77515;PMS5003;66627;29.424;-98.496;2023-02-27T09:36:06;21;21;
77515;PMS5003;66627;29.424;-98.496;2023-02-27T09:38:31;24;24;
77515;PMS5003;66627;29.424;-98.496;2023-02-27T09:40:56;25;23;
77515;PMS5003;66627;29.424;-98.496;2023-02-27T09:43:23;22;20;
77515;PMS5003;66627;29.424;-98.496;2023-02-27T09:45:49;22;19;
77515;PMS5003;66627;29.424;-98.496;2023-02-27T09:48:14;25;25;
77515;PMS5003;66627;29.424;-98.496;2023-02-27T09:50:38;21;19;
77515;PMS5003;66627;29.424;-98.496;2023-02-27T09:53:03;25;22;
77515;PMS5003;66627;29.424;-98.496;2023-02-27T09:55:30;21;19;
77515;PMS5003;66627;29.424;-98.496;2023-02-27T09:57:56;20;20;
77515;PMS5003;66627;29.424;-98.496;2023-02-27T10:00:27;29;25;
77515;PMS5003;66627;29.424;-98.496;2023-02-27T10:02:48;24;20;
77515;PMS5003;66627;29.424;-98.496;2023-02-27T10:05:14;25;23;
77515;PMS5003;66627;29.424;-98.496;2023-02-27T10:07:37;21;21;
77515;PMS5003;66627;29.424;-98.496;2023-02-27T10:10:06;22;18;
77515;PMS5003;66627;29.424;-98.496;2023-02-27T10:12:33;27;23;
77515;PMS5003;66627;29.424;-98.496;2023-02-27T10:14:55;21;21;
77515;PMS5003;66627;29.424;-98.496;2023-02-27T10:17:20;20;19;
77515;PMS5003;66627;29.424;-98.496;2023-02-27T10:19:45;22;22;
77515;PMS5003;66627;29.424;-98.496;2023-02-27T10:22:13;21;20;
77515;PMS5003;66627;29.424;-98.496;2023-02-27T10:24:37;18;16;
77515;PMS5003;66627;29.424;-98.496;2023-02-27T10:27:02;18;17;
77515;PMS5003;66627;29.424;-98.496;2023-02-27T10:29:28;20;20;
77515;PMS5003;66627;29.424;-98.496;2023-02-27T10:31:54;23;21;
77515;PMS5003;66627;29.424;-98.496;2023-02-27T10:34:19;19;17;
77515;PMS5003;66627;29.424;-98.496;2023-02-27T10:36:44;20;16;
77515;PMS5003;66627;29.424;-98.496;2023-02-27T10:39:10;22;21;
77515;PMS5003;66627;29.424;-98.496;2023-02-27T10:41:35;17;17;
77515;PMS5003;66627;29.424;-98.496;2023-02-27T10:44:00;15;15;
77515;PMS5003;66627;29.424;-98.496;2023-02-27T10:46:26;17;17;
77515;PMS5003;66627;29.424;-98.496;2023-02-27T10:48:51;20;18;
77515;PMS5003;66627;29.424;-98.496;2023-02-27T10:51:20;18;18;
77515;PMS5003;66627;29.424;-98.496;2023-02-27T10:53:41;18;17;
77515;PMS5003;66627;29.424;-98.496;2023-02-27T10:56:07;15;15;
77515;PMS5003;66627;29.424;-98.496;2023-02-27T10:58:32;18;18;
77515;PMS5003;66627;29.424;-98.496;2023-02-27T11:00:58;16;16;
77515;PMS5003;66627;29.424;-98.496;2023-02-27T11:03:25;20;19;
77515;PMS5003;66627;29.424;-98.496;2023-02-27T11:05:53;18;16;
77515;PMS5003;66627;29.424;-98.496;2023-02-27T11:08:20;16;16;
77515;PMS5003;66627;29.424;-98.496;2023-02-27T11:13:08;18;18;
77515;PMS5003;66627;29.424;-98.496;2023-02-27T11:15:31;18;18;
77515;PMS5003;66627;29.424;-98.496;2023-02-27T11:20:30;20;20;
77515;PMS5003;66627;29.424;-98.496;2023-02-27T11:22:47;18;17;
77515;PMS5003;66627;29.424;-98.496;2023-02-27T11:25:17;21;20;
77515;PMS5003;66627;29.424;-98.496;2023-02-27T11:27:38;23;23;
77515;PMS5003;66627;29.424;-98.496;2023-02-27T11:30:04;20;19;
77515;PMS5003;66627;29.424;-98.496;2023-02-27T11:32:34;16;16;
77515;PMS5003;66627;29.424;-98.496;2023-02-27T11:34:54;19;19;
77515;PMS5003;66627;29.424;-98.496;2023-02-27T11:37:21;23;22;
77515;PMS5003;66627;29.424;-98.496;2023-02-27T11:39:47;20;20;
77515;PMS5003;66627;29.424;-98.496;2023-02-27T11:42:13;20;19;
77515;PMS5003;66627;29.424;-98.496;2023-02-27T11:44:36;23;22;
77515;PMS5003;66627;29.424;-98.496;2023-02-27T11:47:09;19;18;
77515;PMS5003;66627;29.424;-98.496;2023-02-27T11:49:28;24;21;
77515;PMS5003;66627;29.424;-98.496;2023-02-27T11:51:54;22;19;
77515;PMS5003;66627;29.424;-98.496;2023-02-27T11:54:20;22;22;
77515;PMS5003;66627;29.424;-98.496;2023-02-27T11:56:45;19;18;
77515;PMS5003;66627;29.424;-98.496;2023-02-27T11:59:13;21;18;
77515;PMS5003;66627;29.424;-98.496;2023-02-27T12:01:36;18;18;
77515;PMS5003;66627;29.424;-98.496;2023-02-27T12:04:01;23;20;
77515;PMS5003;66627;29.424;-98.496;2023-02-27T12:06:26;20;19;
77515;PMS5003;66627;29.424;-98.496;2023-02-27T12:08:51;18;18;
77515;PMS5003;66627;29.424;-98.496;2023-02-27T12:11:21;19;19;
77515;PMS5003;66627;29.424;-98.496;2023-02-27T12:13:41;18;16;
77515;PMS5003;66627;29.424;-98.496;2023-02-27T12:16:09;19;18;
77515;PMS5003;66627;29.424;-98.496;2023-02-27T12:18:33;13;9;
77515;PMS5003;66627;29.424;-98.496;2023-02-27T12:20:58;7;7;
77515;PMS5003;66627;29.424;-98.496;2023-02-27T12:23:26;10;7;
77515;PMS5003;66627;29.424;-98.496;2023-02-27T12:25:49;2;2;
77515;PMS5003;66627;29.424;-98.496;2023-02-27T12:28:18;5;5;
77515;PMS5003;66627;29.424;-98.496;2023-02-27T12:30:40;8;4;
77515;PMS5003;66627;29.424;-98.496;2023-02-27T12:33:08;4;4;
77515;PMS5003;66627;29.424;-98.496;2023-02-27T12:35:30;5;3;
77515;PMS5003;66627;29.424;-98.496;2023-02-27T12:37:56;3;2;
77515;PMS5003;66627;29.424;-98.496;2023-02-27T12:40:22;5;4;
77515;PMS5003;66627;29.424;-98.496;2023-02-27T12:42:52;5;5;
77515;PMS5003;66627;29.424;-98.496;2023-02-27T12:47:37;3;3;
77515;PMS5003;66627;29.424;-98.496;2023-02-27T12:50:02;3;2;
77515;PMS5003;66627;29.424;-98.496;2023-02-27T12:52:30;4;3;
77515;PMS5003;66627;29.424;-98.496;2023-02-27T12:54:54;4;3;
77515;PMS5003;66627;29.424;-98.496;2023-02-27T12:57:23;5;3;
77515;PMS5003;66627;29.424;-98.496;2023-02-27T12:59:49;4;1;
77515;PMS5003;66627;29.424;-98.496;2023-02-27T13:04:36;3;3;
77515;PMS5003;66627;29.424;-98.496;2023-02-27T13:07:00;2;2;
77515;PMS5003;66627;29.424;-98.496;2023-02-27T13:09:27;1;1;
77515;PMS5003;66627;29.424;-98.496;2023-02-27T13:11:52;5;2;
77515;PMS5003;66627;29.424;-98.496;2023-02-27T13:14:18;1;0;
77515;PMS5003;66627;29.424;-98.496;2023-02-27T13:16:40;3;3;
77515;PMS5003;66627;29.424;-98.496;2023-02-27T13:19:08;4;3;
77515;PMS5003;66627;29.424;-98.496;2023-02-27T13:21:32;3;2;
77515;PMS5003;66627;29.424;-98.496;2023-02-27T13:23:57;1;0;
77515;PMS5003;66627;29.424;-98.496;2023-02-27T13:26:22;1;1;
77515;PMS5003;66627;29.424;-98.496;2023-02-27T13:28:46;2;1;
77515;PMS5003;66627;29.424;-98.496;2023-02-27T13:31:12;1;0;
77515;PMS5003;66627;29.424;-98.496;2023-02-27T13:36:03;1;1;
77515;PMS5003;66627;29.424;-98.496;2023-02-27T13:38:30;3;1;
77515;PMS5003;66627;29.424;-98.496;2023-02-27T13:40:52;1;1;
77515;PMS5003;66627;29.424;-98.496;2023-02-27T13:43:27;2;2;
77515;PMS5003;66627;29.424;-98.496;2023-02-27T13:45:48;2;2;
77515;PMS5003;66627;29.424;-98.496;2023-02-27T13:55:25;0;0;
77515;PMS5003;66627;29.424;-98.496;2023-02-27T13:57:49;2;0;
77515;PMS5003;66627;29.424;-98.496;2023-02-27T14:00:18;1;1;
77515;PMS5003;66627;29.424;-98.496;2023-02-27T14:02:41;0;0;
77515;PMS5003;66627;29.424;-98.496;2023-02-27T14:05:05;2;2;
77515;PMS5003;66627;29.424;-98.496;2023-02-27T14:07:31;3;1;
77515;PMS5003;66627;29.424;-98.496;2023-02-27T14:09:59;1;0;
77515;PMS5003;66627;29.424;-98.496;2023-02-27T14:12:27;3;0;
77515;PMS5003;66627;29.424;-98.496;2023-02-27T14:14:46;1;1;
77515;PMS5003;66627;29.424;-98.496;2023-02-27T14:17:12;0;0;
77515;PMS5003;66627;29.424;-98.496;2023-02-27T14:22:21;0;0;
77515;PMS5003;66627;29.424;-98.496;2023-02-27T14:24:30;1;1;
77515;PMS5003;66627;29.424;-98.496;2023-02-27T14:26:51;0;0;
77515;PMS5003;66627;29.424;-98.496;2023-02-27T14:29:18;2;1;
77515;PMS5003;66627;29.424;-98.496;2023-02-27T14:31:42;0;0;
77515;PMS5003;66627;29.424;-98.496;2023-02-27T14:34:11;1;0;
77515;PMS5003;66627;29.424;-98.496;2023-02-27T14:36:33;2;1;
77515;PMS5003;66627;29.424;-98.496;2023-02-27T14:38:58;0;0;
77515;PMS5003;66627;29.424;-98.496;2023-02-27T14:41:27;1;1;
77515;PMS5003;66627;29.424;-98.496;2023-02-27T14:43:55;0;0;
77515;PMS5003;66627;29.424;-98.496;2023-02-27T14:46:18;3;1;
77515;PMS5003;66627;29.424;-98.496;2023-02-27T14:48:38;2;2;
77515;PMS5003;66627;29.424;-98.496;2023-02-27T14:51:03;0;0;
77515;PMS5003;66627;29.424;-98.496;2023-02-27T14:53:28;0;0;
77515;PMS5003;66627;29.424;-98.496;2023-02-27T14:55:54;1;1;
77515;PMS5003;66627;29.424;-98.496;2023-02-27T14:58:19;1;1;
77515;PMS5003;66627;29.424;-98.496;2023-02-27T15:00:44;1;1;
77515;PMS5003;66627;29.424;-98.496;2023-02-27T15:03:11;1;1;
77515;PMS5003;66627;29.424;-98.496;2023-02-27T15:05:34;0;0;
77515;PMS5003;66627;29.424;-98.496;2023-02-27T15:07:59;0;0;
77515;PMS5003;66627;29.424;-98.496;2023-02-27T15:10:25;0;0;
77515;PMS5003;66627;29.424;-98.496;2023-02-27T15:12:49;0;0;
77515;PMS5003;66627;29.424;-98.496;2023-02-27T15:15:15;0;0;
77515;PMS5003;66627;29.424;-98.496;2023-02-27T15:17:40;0;0;
77515;PMS5003;66627;29.424;-98.496;2023-02-27T15:24:55;0;0;
77515;PMS5003;66627;29.424;-98.496;2023-02-27T15:27:21;0;0;
77515;PMS5003;66627;29.424;-98.496;2023-02-27T15:29:47;0;0;
77515;PMS5003;66627;29.424;-98.496;2023-02-27T15:32:14;1;1;
77515;PMS5003;66627;29.424;-98.496;2023-02-27T15:34:36;0;0;
77515;PMS5003;66627;29.424;-98.496;2023-02-27T15:37:01;0;0;
77515;PMS5003;66627;29.424;-98.496;2023-02-27T15:39:26;3;1;
77515;PMS5003;66627;29.424;-98.496;2023-02-27T15:41:51;0;0;
77515;PMS5003;66627;29.424;-98.496;2023-02-27T15:44:17;2;2;
77515;PMS5003;66627;29.424;-98.496;2023-02-27T15:46:41;0;0;
77515;PMS5003;66627;29.424;-98.496;2023-02-27T15:49:08;0;0;
77515;PMS5003;66627;29.424;-98.496;2023-02-27T15:51:31;0;0;
77515;PMS5003;66627;29.424;-98.496;2023-02-27T15:53:58;0;0;
77515;PMS5003;66627;29.424;-98.496;2023-02-27T15:56:23;0;0;
77515;PMS5003;66627;29.424;-98.496;2023-02-27T15:58:48;0;0;
77515;PMS5003;66627;29.424;-98.496;2023-02-27T16:01:13;0;0;
77515;PMS5003;66627;29.424;-98.496;2023-02-27T16:03:38;0;0;
77515;PMS5003;66627;29.424;-98.496;2023-02-27T16:06:07;1;0;
77515;PMS5003;66627;29.424;-98.496;2023-02-27T16:08:29;2;1;
77515;PMS5003;66627;29.424;-98.496;2023-02-27T16:10:53;0;0;
77515;PMS5003;66627;29.424;-98.496;2023-02-27T16:13:20;1;1;
77515;PMS5003;66627;29.424;-98.496;2023-02-27T16:15:43;1;1;
77515;PMS5003;66627;29.424;-98.496;2023-02-27T16:20:38;0;0;
77515;PMS5003;66627;29.424;-98.496;2023-02-27T16:23:00;0;0;
77515;PMS5003;66627;29.424;-98.496;2023-02-27T16:25:24;0;0;
77515;PMS5003;66627;29.424;-98.496;2023-02-27T16:27:49;0;0;
77515;PMS5003;66627;29.424;-98.496;2023-02-27T16:30:14;1;0;
77515;PMS5003;66627;29.424;-98.496;2023-02-27T16:32:40;0;0;